Terminal Aerodrome Forecast
Issued by NWS Jacksonville, FL

Home | Current Version | Previous Version | Text Only | Print | Product List | Glossary On
Versions: 1 2 3 4 5 6 7 8 9 10 11 12 13 14 15 16 17 18 19 20 21 22 23
000
FTUS42 KJAX 220547
TAFGNV
TAF
KGNV 220547Z 2206/2306 07005KT 6SM BR FEW005 BKN020 OVC060
      TEMPO 2206/2208 2SM BR BKN005
     FM220800 00000KT 1/4SM FG VV002
     FM221400 03005KT P6SM SCT010 BKN025 OVC050
     FM221800 04006KT P6SM SCT025 BKN050=

USA.gov is the U.S. government's official web portal to all federal, state and local government web resources and services.